sensor_id;sensor_type;location;lat;lon;timestamp;pressure;altitude;pressure_sealevel;temperature;humidity
56176;BME280;63065;51.082;17.016;2022-12-13T00:00:22;99835.61;;;-2.68;52.55
56176;BME280;63065;51.082;17.016;2022-12-13T00:02:47;99841.78;;;-2.06;51.51
56176;BME280;63065;51.082;17.016;2022-12-13T00:05:13;99841.05;;;-1.58;51.09
56176;BME280;63065;51.082;17.016;2022-12-13T00:07:38;99835.35;;;-2.76;52.56
56176;BME280;63065;51.082;17.016;2022-12-13T00:10:04;99835.61;;;-2.94;54.18
56176;BME280;63065;51.082;17.016;2022-12-13T00:12:28;99838.65;;;-2.12;53.09
56176;BME280;63065;51.082;17.016;2022-12-13T00:14:53;99841.34;;;-2.38;52.30
56176;BME280;63065;51.082;17.016;2022-12-13T00:17:19;99843.55;;;-1.77;51.51
56176;BME280;63065;51.082;17.016;2022-12-13T00:19:45;99839.54;;;-1.20;50.33
56176;BME280;63065;51.082;17.016;2022-12-13T00:22:09;99842.81;;;-2.31;52.78
56176;BME280;63065;51.082;17.016;2022-12-13T00:24:35;99841.60;;;-2.36;52.68
56176;BME280;63065;51.082;17.016;2022-12-13T00:27:00;99845.17;;;-1.82;52.23
56176;BME280;63065;51.082;17.016;2022-12-13T00:29:25;99843.69;;;-1.61;52.18
56176;BME280;63065;51.082;17.016;2022-12-13T00:31:51;99840.38;;;-1.99;51.71
56176;BME280;63065;51.082;17.016;2022-12-13T00:34:15;99841.62;;;-2.00;51.75
56176;BME280;63065;51.082;17.016;2022-12-13T00:36:41;99844.93;;;-1.68;52.04
56176;BME280;63065;51.082;17.016;2022-12-13T00:39:06;99838.44;;;-2.64;52.40
56176;BME280;63065;51.082;17.016;2022-12-13T00:41:34;99841.98;;;-1.70;51.97
56176;BME280;63065;51.082;17.016;2022-12-13T00:43:57;99843.55;;;-1.61;51.84
56176;BME280;63065;51.082;17.016;2022-12-13T00:46:23;99844.45;;;-1.68;50.26
56176;BME280;63065;51.082;17.016;2022-12-13T00:48:50;99847.79;;;-1.93;52.03
56176;BME280;63065;51.082;17.016;2022-12-13T00:51:14;99845.49;;;-2.12;51.17
56176;BME280;63065;51.082;17.016;2022-12-13T00:53:39;99844.80;;;-2.29;53.05
56176;BME280;63065;51.082;17.016;2022-12-13T00:56:09;99848.88;;;-2.12;53.31
56176;BME280;63065;51.082;17.016;2022-12-13T00:58:30;99851.49;;;-1.50;51.85
56176;BME280;63065;51.082;17.016;2022-12-13T01:01:02;99853.89;;;-1.73;51.19
56176;BME280;63065;51.082;17.016;2022-12-13T01:03:21;99850.46;;;-1.36;50.15
56176;BME280;63065;51.082;17.016;2022-12-13T01:05:47;99853.59;;;-1.46;50.90
56176;BME280;63065;51.082;17.016;2022-12-13T01:08:12;99856.82;;;-1.89;51.65
56176;BME280;63065;51.082;17.016;2022-12-13T01:10:42;99860.20;;;-1.54;52.06
56176;BME280;63065;51.082;17.016;2022-12-13T01:13:03;99861.89;;;-1.73;51.47
56176;BME280;63065;51.082;17.016;2022-12-13T01:15:28;99861.92;;;-1.87;51.33
56176;BME280;63065;51.082;17.016;2022-12-13T01:17:54;99852.03;;;-1.57;50.69
56176;BME280;63065;51.082;17.016;2022-12-13T01:20:19;99853.77;;;-1.61;51.51
56176;BME280;63065;51.082;17.016;2022-12-13T01:22:44;99854.75;;;-1.34;50.54
56176;BME280;63065;51.082;17.016;2022-12-13T01:25:10;99858.65;;;-1.83;50.23
56176;BME280;63065;51.082;17.016;2022-12-13T01:27:35;99858.46;;;-1.37;51.27
56176;BME280;63065;51.082;17.016;2022-12-13T01:30:00;99853.96;;;-1.67;51.32
56176;BME280;63065;51.082;17.016;2022-12-13T01:32:25;99850.51;;;-1.82;51.86
56176;BME280;63065;51.082;17.016;2022-12-13T01:34:51;99848.75;;;-1.69;50.89
56176;BME280;63065;51.082;17.016;2022-12-13T01:37:17;99855.83;;;-1.80;49.95
56176;BME280;63065;51.082;17.016;2022-12-13T01:39:43;99857.62;;;-1.63;50.48
56176;BME280;63065;51.082;17.016;2022-12-13T01:42:13;99855.30;;;-1.70;50.94
56176;BME280;63065;51.082;17.016;2022-12-13T01:46:59;99852.28;;;-1.61;51.08
56176;BME280;63065;51.082;17.016;2022-12-13T01:49:24;99855.50;;;-2.37;50.68
56176;BME280;63065;51.082;17.016;2022-12-13T01:51:52;99856.13;;;-1.58;49.56
56176;BME280;63065;51.082;17.016;2022-12-13T01:54:19;99859.54;;;-1.71;50.42
56176;BME280;63065;51.082;17.016;2022-12-13T01:56:45;99861.92;;;-2.10;51.07
56176;BME280;63065;51.082;17.016;2022-12-13T01:59:08;99863.14;;;-1.74;49.61
56176;BME280;63065;51.082;17.016;2022-12-13T02:01:31;99866.07;;;-1.81;50.27
56176;BME280;63065;51.082;17.016;2022-12-13T02:03:56;99869.38;;;-1.41;50.72
56176;BME280;63065;51.082;17.016;2022-12-13T02:06:27;99869.94;;;-2.58;50.07
56176;BME280;63065;51.082;17.016;2022-12-13T02:08:48;99870.36;;;-1.89;50.51
56176;BME280;63065;51.082;17.016;2022-12-13T02:11:13;99866.18;;;-2.58;51.92
56176;BME280;63065;51.082;17.016;2022-12-13T02:13:39;99868.12;;;-2.07;50.91
56176;BME280;63065;51.082;17.016;2022-12-13T02:16:10;99867.59;;;-1.68;50.60
56176;BME280;63065;51.082;17.016;2022-12-13T02:18:43;99866.89;;;-2.71;50.85
56176;BME280;63065;51.082;17.016;2022-12-13T02:21:04;99871.56;;;-2.21;50.91
56176;BME280;63065;51.082;17.016;2022-12-13T02:23:36;99865.51;;;-2.49;51.61
56176;BME280;63065;51.082;17.016;2022-12-13T02:26:01;99863.81;;;-2.80;52.19
56176;BME280;63065;51.082;17.016;2022-12-13T02:28:24;99874.68;;;-3.39;52.13
56176;BME280;63065;51.082;17.016;2022-12-13T02:30:40;99871.26;;;-2.78;52.12
56176;BME280;63065;51.082;17.016;2022-12-13T02:33:11;99874.29;;;-2.68;52.19
56176;BME280;63065;51.082;17.016;2022-12-13T02:35:34;99873.86;;;-2.22;51.17
56176;BME280;63065;51.082;17.016;2022-12-13T02:37:59;99874.09;;;-2.01;50.18
56176;BME280;63065;51.082;17.016;2022-12-13T02:40:24;99874.41;;;-2.25;51.62
56176;BME280;63065;51.082;17.016;2022-12-13T02:42:51;99875.25;;;-2.76;50.72
56176;BME280;63065;51.082;17.016;2022-12-13T02:45:15;99875.65;;;-2.66;51.09
56176;BME280;63065;51.082;17.016;2022-12-13T02:47:39;99871.68;;;-2.08;50.81
56176;BME280;63065;51.082;17.016;2022-12-13T02:50:06;99875.44;;;-2.88;51.07
56176;BME280;63065;51.082;17.016;2022-12-13T02:52:30;99876.40;;;-2.52;51.08
56176;BME280;63065;51.082;17.016;2022-12-13T02:54:53;99877.87;;;-1.98;51.37
56176;BME280;63065;51.082;17.016;2022-12-13T02:59:44;99871.85;;;-2.12;49.79
56176;BME280;63065;51.082;17.016;2022-12-13T03:02:15;99869.26;;;-2.64;49.26
56176;BME280;63065;51.082;17.016;2022-12-13T03:04:42;99869.54;;;-2.34;49.72
56176;BME280;63065;51.082;17.016;2022-12-13T03:07:08;99870.84;;;-2.65;49.67
56176;BME280;63065;51.082;17.016;2022-12-13T03:09:39;99874.47;;;-2.22;50.33
56176;BME280;63065;51.082;17.016;2022-12-13T03:12:04;99868.65;;;-2.07;48.97
56176;BME280;63065;51.082;17.016;2022-12-13T03:14:20;99874.21;;;-2.29;48.77
56176;BME280;63065;51.082;17.016;2022-12-13T03:16:43;99869.45;;;-3.08;49.93
56176;BME280;63065;51.082;17.016;2022-12-13T03:19:09;99874.06;;;-3.59;49.93
56176;BME280;63065;51.082;17.016;2022-12-13T03:21:37;99874.76;;;-3.00;49.42
56176;BME280;63065;51.082;17.016;2022-12-13T03:23:58;99877.05;;;-2.69;49.77
56176;BME280;63065;51.082;17.016;2022-12-13T03:26:25;99876.81;;;-2.97;50.24
56176;BME280;63065;51.082;17.016;2022-12-13T03:28:50;99877.30;;;-3.09;50.31
56176;BME280;63065;51.082;17.016;2022-12-13T03:31:15;99873.84;;;-3.16;49.49
56176;BME280;63065;51.082;17.016;2022-12-13T03:33:40;99877.77;;;-2.95;51.34
56176;BME280;63065;51.082;17.016;2022-12-13T03:36:06;99876.57;;;-3.32;50.29
56176;BME280;63065;51.082;17.016;2022-12-13T03:38:31;99876.39;;;-3.08;49.79
56176;BME280;63065;51.082;17.016;2022-12-13T03:40:58;99877.24;;;-3.16;49.93
56176;BME280;63065;51.082;17.016;2022-12-13T03:43:21;99881.57;;;-2.71;49.20
56176;BME280;63065;51.082;17.016;2022-12-13T03:45:47;99880.49;;;-2.61;48.15
56176;BME280;63065;51.082;17.016;2022-12-13T03:48:13;99878.18;;;-2.94;48.11
56176;BME280;63065;51.082;17.016;2022-12-13T03:50:38;99875.78;;;-3.02;48.44
56176;BME280;63065;51.082;17.016;2022-12-13T03:53:04;99880.33;;;-3.39;48.62
56176;BME280;63065;51.082;17.016;2022-12-13T03:55:29;99879.03;;;-2.66;48.79
56176;BME280;63065;51.082;17.016;2022-12-13T03:57:54;99875.51;;;-2.53;47.65
56176;BME280;63065;51.082;17.016;2022-12-13T04:00:19;99875.96;;;-2.73;47.59
56176;BME280;63065;51.082;17.016;2022-12-13T04:02:45;99878.94;;;-2.91;47.55
56176;BME280;63065;51.082;17.016;2022-12-13T04:05:10;99877.43;;;-2.85;47.72
56176;BME280;63065;51.082;17.016;2022-12-13T04:07:36;99879.96;;;-2.39;46.95
56176;BME280;63065;51.082;17.016;2022-12-13T04:10:01;99880.85;;;-3.34;48.07
56176;BME280;63065;51.082;17.016;2022-12-13T04:12:26;99881.14;;;-3.13;47.79
56176;BME280;63065;51.082;17.016;2022-12-13T04:14:52;99883.87;;;-2.54;48.60
56176;BME280;63065;51.082;17.016;2022-12-13T04:17:17;99881.73;;;-2.99;47.19
56176;BME280;63065;51.082;17.016;2022-12-13T04:19:43;99882.15;;;-3.15;47.63
56176;BME280;63065;51.082;17.016;2022-12-13T04:22:08;99884.78;;;-2.66;48.11
56176;BME280;63065;51.082;17.016;2022-12-13T04:24:33;99883.61;;;-3.23;48.20
56176;BME280;63065;51.082;17.016;2022-12-13T04:26:59;99883.97;;;-3.21;48.15
56176;BME280;63065;51.082;17.016;2022-12-13T04:29:23;99885.87;;;-2.85;49.45
56176;BME280;63065;51.082;17.016;2022-12-13T04:31:49;99885.41;;;-2.82;48.64
56176;BME280;63065;51.082;17.016;2022-12-13T04:34:14;99884.16;;;-2.53;47.57
56176;BME280;63065;51.082;17.016;2022-12-13T04:36:39;99886.73;;;-2.06;48.36
56176;BME280;63065;51.082;17.016;2022-12-13T04:39:05;99884.67;;;-2.25;47.95
56176;BME280;63065;51.082;17.016;2022-12-13T04:41:34;99883.27;;;-1.78;47.41
56176;BME280;63065;51.082;17.016;2022-12-13T04:43:55;99881.02;;;-1.67;47.99
56176;BME280;63065;51.082;17.016;2022-12-13T04:46:21;99878.10;;;-2.24;46.86
56176;BME280;63065;51.082;17.016;2022-12-13T04:48:46;99878.43;;;-2.03;47.15
56176;BME280;63065;51.082;17.016;2022-12-13T04:51:11;99877.14;;;-1.92;48.14
56176;BME280;63065;51.082;17.016;2022-12-13T04:53:36;99881.42;;;-1.89;46.98
56176;BME280;63065;51.082;17.016;2022-12-13T04:56:03;99882.46;;;-1.71;46.42
56176;BME280;63065;51.082;17.016;2022-12-13T04:58:27;99880.33;;;-1.68;47.11
56176;BME280;63065;51.082;17.016;2022-12-13T05:00:52;99878.26;;;-1.67;46.73
56176;BME280;63065;51.082;17.016;2022-12-13T05:03:18;99880.97;;;-1.74;46.05
56176;BME280;63065;51.082;17.016;2022-12-13T05:05:43;99881.70;;;-1.43;47.00
56176;BME280;63065;51.082;17.016;2022-12-13T05:08:09;99885.14;;;-1.38;47.56
56176;BME280;63065;51.082;17.016;2022-12-13T05:10:34;99886.09;;;-1.83;47.54
56176;BME280;63065;51.082;17.016;2022-12-13T05:13:00;99886.21;;;-2.00;48.17
56176;BME280;63065;51.082;17.016;2022-12-13T05:15:25;99883.35;;;-2.45;49.05
56176;BME280;63065;51.082;17.016;2022-12-13T05:17:51;99885.66;;;-1.96;49.36
56176;BME280;63065;51.082;17.016;2022-12-13T05:20:16;99884.41;;;-2.42;49.12
56176;BME280;63065;51.082;17.016;2022-12-13T05:22:41;99884.03;;;-1.67;49.27
56176;BME280;63065;51.082;17.016;2022-12-13T05:25:08;99883.66;;;-2.17;50.13
56176;BME280;63065;51.082;17.016;2022-12-13T05:27:32;99887.05;;;-2.01;49.93
56176;BME280;63065;51.082;17.016;2022-12-13T05:29:58;99888.63;;;-2.42;49.87
56176;BME280;63065;51.082;17.016;2022-12-13T05:32:23;99888.05;;;-1.86;48.65
56176;BME280;63065;51.082;17.016;2022-12-13T05:34:49;99884.02;;;-2.17;50.39
56176;BME280;63065;51.082;17.016;2022-12-13T05:37:15;99884.49;;;-1.94;49.82
56176;BME280;63065;51.082;17.016;2022-12-13T05:39:40;99879.71;;;-2.44;50.56
56176;BME280;63065;51.082;17.016;2022-12-13T05:42:05;99881.70;;;-2.25;51.32
56176;BME280;63065;51.082;17.016;2022-12-13T05:44:31;99889.05;;;-1.97;50.44
56176;BME280;63065;51.082;17.016;2022-12-13T05:46:56;99889.64;;;-1.91;50.65
56176;BME280;63065;51.082;17.016;2022-12-13T05:49:21;99888.42;;;-1.95;50.45
56176;BME280;63065;51.082;17.016;2022-12-13T05:51:47;99886.16;;;-1.81;49.32
56176;BME280;63065;51.082;17.016;2022-12-13T05:54:12;99886.12;;;-3.30;50.62
56176;BME280;63065;51.082;17.016;2022-12-13T05:56:37;99887.62;;;-2.50;50.69
56176;BME280;63065;51.082;17.016;2022-12-13T05:59:03;99889.27;;;-2.70;50.68
56176;BME280;63065;51.082;17.016;2022-12-13T06:01:28;99889.45;;;-2.16;49.84
56176;BME280;63065;51.082;17.016;2022-12-13T06:03:54;99892.09;;;-2.28;49.88
56176;BME280;63065;51.082;17.016;2022-12-13T06:06:20;99895.30;;;-1.71;50.45
56176;BME280;63065;51.082;17.016;2022-12-13T06:08:45;99897.81;;;-2.07;50.23
56176;BME280;63065;51.082;17.016;2022-12-13T06:11:10;99893.46;;;-2.06;50.30
56176;BME280;63065;51.082;17.016;2022-12-13T06:13:36;99885.96;;;-2.20;50.14
56176;BME280;63065;51.082;17.016;2022-12-13T06:16:03;99893.10;;;-2.06;50.05
56176;BME280;63065;51.082;17.016;2022-12-13T06:18:26;99889.36;;;-1.62;49.61
56176;BME280;63065;51.082;17.016;2022-12-13T06:20:56;99890.63;;;-1.70;49.41
56176;BME280;63065;51.082;17.016;2022-12-13T06:23:17;99893.29;;;-1.88;49.70
56176;BME280;63065;51.082;17.016;2022-12-13T06:25:43;99898.37;;;-1.68;50.25
56176;BME280;63065;51.082;17.016;2022-12-13T06:28:08;99897.36;;;-1.45;49.10
56176;BME280;63065;51.082;17.016;2022-12-13T06:30:34;99896.74;;;-1.42;48.98
56176;BME280;63065;51.082;17.016;2022-12-13T06:32:59;99896.36;;;-1.67;49.46
56176;BME280;63065;51.082;17.016;2022-12-13T06:35:25;99899.28;;;-1.67;49.69
56176;BME280;63065;51.082;17.016;2022-12-13T06:37:51;99901.24;;;-1.50;49.16
56176;BME280;63065;51.082;17.016;2022-12-13T06:40:16;99902.72;;;-2.12;49.09
56176;BME280;63065;51.082;17.016;2022-12-13T06:42:41;99902.29;;;-1.74;49.06
56176;BME280;63065;51.082;17.016;2022-12-13T06:45:06;99908.23;;;-1.52;49.67
56176;BME280;63065;51.082;17.016;2022-12-13T06:47:32;99906.87;;;-1.22;48.72
56176;BME280;63065;51.082;17.016;2022-12-13T06:49:57;99913.92;;;-1.77;49.05
56176;BME280;63065;51.082;17.016;2022-12-13T06:52:22;99916.62;;;-1.86;49.44
56176;BME280;63065;51.082;17.016;2022-12-13T06:54:47;99917.61;;;-1.47;49.72
56176;BME280;63065;51.082;17.016;2022-12-13T06:57:13;99917.48;;;-1.68;49.73
56176;BME280;63065;51.082;17.016;2022-12-13T06:59:39;99921.18;;;-2.07;49.49
56176;BME280;63065;51.082;17.016;2022-12-13T07:02:05;99923.35;;;-1.92;50.48
56176;BME280;63065;51.082;17.016;2022-12-13T07:04:29;99922.35;;;-2.07;49.84
56176;BME280;63065;51.082;17.016;2022-12-13T07:06:54;99924.75;;;-1.52;49.57
56176;BME280;63065;51.082;17.016;2022-12-13T07:09:20;99922.06;;;-1.83;50.43
56176;BME280;63065;51.082;17.016;2022-12-13T07:11:45;99924.31;;;-1.22;49.19
56176;BME280;63065;51.082;17.016;2022-12-13T07:14:11;99928.19;;;-1.86;49.57
56176;BME280;63065;51.082;17.016;2022-12-13T07:16:36;99930.38;;;-1.63;49.81
56176;BME280;63065;51.082;17.016;2022-12-13T07:19:02;99934.48;;;-1.76;49.79
56176;BME280;63065;51.082;17.016;2022-12-13T07:21:27;99936.41;;;-1.20;49.44
56176;BME280;63065;51.082;17.016;2022-12-13T07:23:52;99936.65;;;-1.88;49.81
56176;BME280;63065;51.082;17.016;2022-12-13T07:26:18;99938.90;;;-1.65;49.15
56176;BME280;63065;51.082;17.016;2022-12-13T07:28:43;99942.43;;;-1.83;49.31
56176;BME280;63065;51.082;17.016;2022-12-13T07:31:09;99940.25;;;-1.93;49.98
56176;BME280;63065;51.082;17.016;2022-12-13T07:33:34;99937.23;;;-1.88;49.30
56176;BME280;63065;51.082;17.016;2022-12-13T07:36:00;99935.76;;;-1.79;49.22
56176;BME280;63065;51.082;17.016;2022-12-13T07:38:25;99938.42;;;-2.03;50.04
56176;BME280;63065;51.082;17.016;2022-12-13T07:40:50;99941.38;;;-2.03;50.14
56176;BME280;63065;51.082;17.016;2022-12-13T07:43:15;99937.10;;;-2.10;49.40
56176;BME280;63065;51.082;17.016;2022-12-13T07:45:40;99942.85;;;-1.90;49.17
56176;BME280;63065;51.082;17.016;2022-12-13T07:48:06;99940.10;;;-1.69;48.96
56176;BME280;63065;51.082;17.016;2022-12-13T07:50:31;99944.42;;;-1.79;48.99
56176;BME280;63065;51.082;17.016;2022-12-13T07:52:57;99941.67;;;-1.94;49.29
56176;BME280;63065;51.082;17.016;2022-12-13T07:55:23;99946.83;;;-1.83;49.31
56176;BME280;63065;51.082;17.016;2022-12-13T07:57:48;99949.95;;;-1.24;49.16
56176;BME280;63065;51.082;17.016;2022-12-13T08:00:14;99944.84;;;-2.04;48.67
56176;BME280;63065;51.082;17.016;2022-12-13T08:02:40;99945.70;;;-1.58;48.91
56176;BME280;63065;51.082;17.016;2022-12-13T08:05:06;99940.65;;;-2.00;49.86
56176;BME280;63065;51.082;17.016;2022-12-13T08:07:30;99941.84;;;-2.07;49.64
56176;BME280;63065;51.082;17.016;2022-12-13T08:09:56;99945.27;;;-1.32;49.05
56176;BME280;63065;51.082;17.016;2022-12-13T08:12:21;99944.26;;;-1.56;48.04
56176;BME280;63065;51.082;17.016;2022-12-13T08:14:47;99942.23;;;-1.43;47.87
56176;BME280;63065;51.082;17.016;2022-12-13T08:17:12;99940.19;;;-1.70;48.25
56176;BME280;63065;51.082;17.016;2022-12-13T08:19:38;99938.26;;;-2.15;49.12
56176;BME280;63065;51.082;17.016;2022-12-13T08:22:03;99940.83;;;-1.43;48.16
56176;BME280;63065;51.082;17.016;2022-12-13T08:24:29;99943.03;;;-1.58;48.63
56176;BME280;63065;51.082;17.016;2022-12-13T08:26:55;99946.89;;;-1.63;48.26
56176;BME280;63065;51.082;17.016;2022-12-13T08:29:19;99944.14;;;-1.82;48.45
56176;BME280;63065;51.082;17.016;2022-12-13T08:31:45;99947.74;;;-2.20;48.15
56176;BME280;63065;51.082;17.016;2022-12-13T08:34:11;99952.08;;;-1.43;47.95
56176;BME280;63065;51.082;17.016;2022-12-13T08:36:36;99954.92;;;-1.60;48.39
56176;BME280;63065;51.082;17.016;2022-12-13T08:39:01;99957.72;;;-1.68;47.53
56176;BME280;63065;51.082;17.016;2022-12-13T08:41:27;99955.61;;;-1.34;47.56
56176;BME280;63065;51.082;17.016;2022-12-13T08:43:52;99956.67;;;-1.18;46.56
56176;BME280;63065;51.082;17.016;2022-12-13T08:46:18;99962.32;;;-1.25;47.20
56176;BME280;63065;51.082;17.016;2022-12-13T08:48:43;99958.22;;;-1.88;48.56
56176;BME280;63065;51.082;17.016;2022-12-13T08:51:09;99959.42;;;-1.56;48.31
56176;BME280;63065;51.082;17.016;2022-12-13T08:53:34;99962.07;;;-1.30;48.16
56176;BME280;63065;51.082;17.016;2022-12-13T08:56:00;99963.24;;;-1.45;47.69
56176;BME280;63065;51.082;17.016;2022-12-13T08:58:25;99965.12;;;-1.22;47.40
56176;BME280;63065;51.082;17.016;2022-12-13T09:00:51;99966.50;;;-2.34;48.79
56176;BME280;63065;51.082;17.016;2022-12-13T09:03:16;99968.66;;;-1.59;47.60
56176;BME280;63065;51.082;17.016;2022-12-13T09:05:42;99969.11;;;-1.42;47.65
56176;BME280;63065;51.082;17.016;2022-12-13T09:08:07;99967.17;;;-0.81;47.52
56176;BME280;63065;51.082;17.016;2022-12-13T09:10:33;99971.18;;;-0.82;47.07
56176;BME280;63065;51.082;17.016;2022-12-13T09:12:58;99971.06;;;-1.35;46.61
56176;BME280;63065;51.082;17.016;2022-12-13T09:15:24;99972.24;;;-1.53;47.40
56176;BME280;63065;51.082;17.016;2022-12-13T09:17:49;99976.80;;;-1.25;47.25
56176;BME280;63065;51.082;17.016;2022-12-13T09:20:14;99978.73;;;-0.92;47.28
56176;BME280;63065;51.082;17.016;2022-12-13T09:22:39;99975.43;;;-1.63;47.85
56176;BME280;63065;51.082;17.016;2022-12-13T09:25:06;99975.44;;;-2.04;48.14
56176;BME280;63065;51.082;17.016;2022-12-13T09:27:31;99976.66;;;-1.85;47.46
56176;BME280;63065;51.082;17.016;2022-12-13T09:29:55;99977.23;;;-1.34;46.57
56176;BME280;63065;51.082;17.016;2022-12-13T09:32:21;99975.10;;;-1.85;46.74
56176;BME280;63065;51.082;17.016;2022-12-13T09:34:46;99973.37;;;-1.30;46.82
56176;BME280;63065;51.082;17.016;2022-12-13T09:37:12;99974.32;;;-1.52;46.80
56176;BME280;63065;51.082;17.016;2022-12-13T09:39:38;99969.50;;;-2.04;46.66
56176;BME280;63065;51.082;17.016;2022-12-13T09:42:03;99972.84;;;-1.78;46.65
56176;BME280;63065;51.082;17.016;2022-12-13T09:44:30;99977.95;;;-1.51;46.64
56176;BME280;63065;51.082;17.016;2022-12-13T09:46:54;99982.27;;;-1.34;46.89
56176;BME280;63065;51.082;17.016;2022-12-13T09:49:27;99973.86;;;-1.21;46.78
56176;BME280;63065;51.082;17.016;2022-12-13T09:51:48;99970.32;;;-1.85;48.43
56176;BME280;63065;51.082;17.016;2022-12-13T09:54:15;99971.77;;;-1.38;47.17
56176;BME280;63065;51.082;17.016;2022-12-13T09:56:35;99973.02;;;-1.51;46.64
56176;BME280;63065;51.082;17.016;2022-12-13T09:59:01;99974.15;;;-1.14;47.17
56176;BME280;63065;51.082;17.016;2022-12-13T10:01:26;99972.68;;;-0.48;46.02
56176;BME280;63065;51.082;17.016;2022-12-13T10:03:53;99978.44;;;-1.12;45.98
56176;BME280;63065;51.082;17.016;2022-12-13T10:06:19;99974.25;;;-0.69;45.05
56176;BME280;63065;51.082;17.016;2022-12-13T10:08:46;99976.98;;;-0.49;44.55
56176;BME280;63065;51.082;17.016;2022-12-13T10:11:12;99977.34;;;-0.80;44.67
56176;BME280;63065;51.082;17.016;2022-12-13T10:13:38;99971.77;;;-2.08;46.86
56176;BME280;63065;51.082;17.016;2022-12-13T10:16:05;99973.62;;;-1.18;45.34
56176;BME280;63065;51.082;17.016;2022-12-13T10:18:32;99974.59;;;-1.41;45.04
56176;BME280;63065;51.082;17.016;2022-12-13T10:20:50;99974.21;;;-1.29;46.12
56176;BME280;63065;51.082;17.016;2022-12-13T10:23:16;99970.52;;;-2.50;46.71
56176;BME280;63065;51.082;17.016;2022-12-13T10:25:46;99966.11;;;-1.91;46.63
56176;BME280;63065;51.082;17.016;2022-12-13T10:28:06;99965.45;;;-1.92;47.72
56176;BME280;63065;51.082;17.016;2022-12-13T10:30:38;99961.87;;;-2.53;48.07
56176;BME280;63065;51.082;17.016;2022-12-13T10:33:00;99961.01;;;-1.66;46.36
56176;BME280;63065;51.082;17.016;2022-12-13T10:35:24;99962.46;;;-1.44;46.74
56176;BME280;63065;51.082;17.016;2022-12-13T10:37:48;99968.14;;;-1.01;45.98
56176;BME280;63065;51.082;17.016;2022-12-13T10:42:38;99971.44;;;-1.22;45.60
56176;BME280;63065;51.082;17.016;2022-12-13T10:45:12;99968.09;;;-1.92;46.84
56176;BME280;63065;51.082;17.016;2022-12-13T10:47:29;99964.79;;;-1.21;45.68
56176;BME280;63065;51.082;17.016;2022-12-13T10:49:55;99964.23;;;-1.03;45.77
56176;BME280;63065;51.082;17.016;2022-12-13T10:52:24;99964.52;;;-0.01;44.07
56176;BME280;63065;51.082;17.016;2022-12-13T10:54:46;99962.75;;;-0.14;45.17
56176;BME280;63065;51.082;17.016;2022-12-13T10:57:11;99960.21;;;-1.05;45.55
56176;BME280;63065;51.082;17.016;2022-12-13T10:59:36;99957.09;;;-0.81;46.00
56176;BME280;63065;51.082;17.016;2022-12-13T11:02:01;99955.75;;;-0.37;45.24
56176;BME280;63065;51.082;17.016;2022-12-13T11:04:28;99953.01;;;-1.48;47.03
56176;BME280;63065;51.082;17.016;2022-12-13T11:06:51;99950.40;;;-0.26;46.03
56176;BME280;63065;51.082;17.016;2022-12-13T11:09:25;99951.39;;;-0.35;45.77
56176;BME280;63065;51.082;17.016;2022-12-13T11:11:43;99952.78;;;-0.47;46.27
56176;BME280;63065;51.082;17.016;2022-12-13T11:14:15;99953.88;;;-1.29;46.32
56176;BME280;63065;51.082;17.016;2022-12-13T11:16:38;99954.28;;;-1.16;48.09
56176;BME280;63065;51.082;17.016;2022-12-13T11:19:04;99957.08;;;-1.55;47.69
56176;BME280;63065;51.082;17.016;2022-12-13T11:21:27;99958.14;;;-1.46;48.27
56176;BME280;63065;51.082;17.016;2022-12-13T11:23:52;99949.78;;;-1.95;49.44
56176;BME280;63065;51.082;17.016;2022-12-13T11:26:18;99949.37;;;-0.93;47.82
56176;BME280;63065;51.082;17.016;2022-12-13T11:28:54;99945.92;;;-0.48;46.45
56176;BME280;63065;51.082;17.016;2022-12-13T11:31:12;99938.40;;;-0.07;46.16
56176;BME280;63065;51.082;17.016;2022-12-13T11:33:41;99937.18;;;0.21;45.50
56176;BME280;63065;51.082;17.016;2022-12-13T11:36:07;99943.03;;;-0.34;45.11
56176;BME280;63065;51.082;17.016;2022-12-13T11:38:29;99943.62;;;-1.03;46.02
56176;BME280;63065;51.082;17.016;2022-12-13T11:40:54;99945.37;;;-0.21;45.54
56176;BME280;63065;51.082;17.016;2022-12-13T11:43:22;99946.23;;;-0.80;45.28
56176;BME280;63065;51.082;17.016;2022-12-13T11:45:42;99941.95;;;-0.15;45.13
56176;BME280;63065;51.082;17.016;2022-12-13T11:48:12;99945.72;;;-1.21;46.35
56176;BME280;63065;51.082;17.016;2022-12-13T11:50:34;99946.03;;;-1.70;46.40
56176;BME280;63065;51.082;17.016;2022-12-13T11:53:14;99949.16;;;-1.01;46.15
56176;BME280;63065;51.082;17.016;2022-12-13T11:55:27;99950.68;;;-1.43;45.33
56176;BME280;63065;51.082;17.016;2022-12-13T11:57:52;99950.99;;;-1.40;46.56
56176;BME280;63065;51.082;17.016;2022-12-13T12:00:22;99947.72;;;-1.81;46.45
56176;BME280;63065;51.082;17.016;2022-12-13T12:02:41;99947.64;;;-2.41;46.96
56176;BME280;63065;51.082;17.016;2022-12-13T12:05:05;99942.13;;;-1.71;48.21
56176;BME280;63065;51.082;17.016;2022-12-13T12:07:33;99948.05;;;-0.69;46.66
56176;BME280;63065;51.082;17.016;2022-12-13T12:09:58;99945.44;;;-0.88;46.66
56176;BME280;63065;51.082;17.016;2022-12-13T12:12:24;99948.12;;;-1.33;45.21
56176;BME280;63065;51.082;17.016;2022-12-13T12:14:50;99953.70;;;-0.46;44.16
56176;BME280;63065;51.082;17.016;2022-12-13T12:17:13;99953.11;;;-0.78;43.96
56176;BME280;63065;51.082;17.016;2022-12-13T12:19:37;99952.66;;;-1.18;44.43
56176;BME280;63065;51.082;17.016;2022-12-13T12:22:11;99953.52;;;-0.85;44.83
56176;BME280;63065;51.082;17.016;2022-12-13T12:24:34;99959.34;;;-1.18;43.82
56176;BME280;63065;51.082;17.016;2022-12-13T12:26:58;99956.79;;;-1.06;44.81
56176;BME280;63065;51.082;17.016;2022-12-13T12:29:29;99952.36;;;-1.97;45.62
56176;BME280;63065;51.082;17.016;2022-12-13T12:31:50;99957.49;;;-0.84;44.63
56176;BME280;63065;51.082;17.016;2022-12-13T12:34:13;99965.92;;;-1.06;45.26
56176;BME280;63065;51.082;17.016;2022-12-13T12:36:44;99963.65;;;-1.16;43.15
56176;BME280;63065;51.082;17.016;2022-12-13T12:39:10;99962.31;;;-0.81;43.24
56176;BME280;63065;51.082;17.016;2022-12-13T12:41:29;99958.00;;;-0.41;44.03
56176;BME280;63065;51.082;17.016;2022-12-13T12:43:53;99964.66;;;-0.80;43.48
56176;BME280;63065;51.082;17.016;2022-12-13T12:46:30;99960.59;;;-1.29;44.34